アンカレッジ/テッド・スティーブンス の空港の天気 - METARとTAF

テッド・スティーブンス・アンカレッジ国際空港 ( PANC / ANC ) - アメリカ アラスカ州アンカレッジ
飛行場実況気象(Metar)
観測時間02/17 05:53 AKST (02/17 14:53 UTC)
風向・風速北 4m/s
視程10km以上
天気現象
全天を覆う雲 雲底高度 2440m
気温-4.4℃
湿度81%
気圧1017.6hPa
METARPANC 171453Z 35007KT 10SM OVC080 M04/M07 A3004 RMK AO2 SNE22 SLP176 P0000 60003 T10441072 58030
過去の天気等 Google飛行場航空写真 Wunderground天気予報

過去48時間のMETAR

飛行場予報(TAF)
発表時間: 2/17 02:43 AKST (2/17 11:43 UTC)
予報対象時間: 17日3時 AKST ~ 18日9時 AKST
風向・風速北 4m/s
視程4830m
天気現象弱い雪
少しの雲 雲底高度 300m
全天を覆う雲 雲底高度 760m
17日3時 AKST ~ 17日5時 AKST に一時的に
視程3220m
天気現象弱い雪
全天を覆う雲 雲底高度 300m
17日5時 AKST から
風向・風速北 4m/s
視程10km以上
天気現象周辺でしゅう雨
全天の4割程度の雲 雲底高度 760m
全天を覆う雲 雲底高度 1220m
17日13時 AKST から
風向・風速南南東 6m/s 瞬間風速 10m/s
視程3220m
天気現象弱い雪
全天を覆う雲 雲底高度 610m
17日21時 AKST から
風向・風速南 6m/s 瞬間風速 10m/s
視程10km以上
天気現象周辺でしゅう雨
全天の4割程度の雲 雲底高度 760m
全天を覆う雲 雲底高度 1220m
18日3時 AKST から
風向・風速南南東 7m/s
視程10km以上
全天を覆う雲 雲底高度 1520m
PANC 171143Z 1712/1818 35008KT 3SM -SN FEW010 OVC025
TEMPO 1712/1714 2SM -SN OVC010
FM171400 01007KT P6SM VCSH SCT025 OVC040
FM172200 15012G20KT 2SM -SN OVC020
FM180600 17012G20KT P6SM VCSH SCT025 OVC040
FM181200 16013KT P6SM OVC050